createdAt,value
2023-01-10T00:01:59.072Z,8.50
2023-01-10T00:07:02.803Z,9.45
2023-01-10T00:17:24.957Z,9.23
2023-01-10T00:22:28.723Z,8.10
2023-01-10T00:27:31.095Z,10.00
2023-01-10T00:32:33.439Z,10.15
2023-01-10T00:37:37.177Z,9.93
2023-01-10T00:42:57.093Z,8.27
2023-01-10T00:47:59.428Z,8.23
2023-01-10T00:53:03.184Z,7.60
2023-01-10T00:58:05.532Z,7.78
2023-01-10T01:03:08.430Z,7.28
2023-01-10T01:08:12.929Z,8.73
2023-01-10T01:13:16.213Z,8.35
2023-01-10T01:18:19.228Z,7.40
2023-01-10T01:23:23.241Z,7.35
2023-01-10T01:28:25.668Z,6.82
2023-01-10T01:33:28.013Z,5.53
2023-01-10T01:38:31.715Z,7.35
2023-01-10T01:43:48.944Z,6.00
2023-01-10T01:48:51.315Z,6.72
2023-01-10T01:53:57.991Z,6.47
2023-01-10T01:59:02.015Z,6.43
2023-01-10T02:04:08.691Z,6.90
2023-01-10T02:09:16.814Z,6.60
2023-01-10T02:14:20.584Z,6.70
2023-01-10T02:19:27.254Z,6.38
2023-01-10T02:24:44.921Z,7.00
2023-01-10T02:29:56.225Z,5.93
2023-01-10T02:35:07.511Z,6.35
2023-01-10T02:40:12.860Z,6.97
2023-01-10T02:45:17.699Z,6.43
2023-01-10T02:50:28.664Z,6.22
2023-01-10T02:55:34.880Z,6.43
2023-01-10T03:00:44.668Z,6.38
2023-01-10T03:05:52.983Z,6.55
2023-01-10T03:10:58.010Z,6.10
2023-01-10T03:16:01.126Z,6.28
2023-01-10T03:21:06.307Z,5.88
2023-01-10T03:26:09.925Z,5.72
2023-01-10T03:36:20.907Z,5.28
2023-01-10T03:41:27.312Z,6.20
2023-01-10T03:46:33.717Z,6.10
2023-01-10T03:51:39.590Z,5.85
2023-01-10T03:56:45.820Z,6.38
2023-01-10T04:01:48.344Z,6.13
2023-01-10T04:06:52.185Z,7.07
2023-01-10T04:11:54.593Z,5.57
2023-01-10T04:16:57.479Z,6.72
2023-01-10T04:22:01.181Z,5.93
2023-01-10T04:27:03.538Z,5.57
2023-01-10T04:32:06.198Z,5.93
2023-01-10T04:37:09.897Z,6.27
2023-01-10T04:42:12.336Z,5.72
2023-01-10T04:47:14.791Z,6.60
2023-01-10T04:52:18.504Z,7.07
2023-01-10T04:57:20.930Z,6.20
2023-01-10T05:02:23.468Z,6.85
2023-01-10T05:07:27.310Z,7.97
2023-01-10T05:12:29.893Z,6.88
2023-01-10T05:17:32.275Z,8.30
2023-01-10T05:22:35.991Z,8.30
2023-01-10T05:27:41.476Z,8.95
2023-01-10T05:32:43.956Z,9.10
2023-01-10T05:37:47.642Z,9.50
2023-01-10T05:42:49.989Z,9.57
2023-01-10T05:47:52.349Z,12.25
2023-01-10T05:52:58.061Z,11.57
2023-01-10T05:58:00.582Z,13.05
2023-01-10T06:03:03.014Z,14.10
2023-01-10T06:08:06.878Z,14.40
2023-01-10T06:13:10.062Z,13.85
2023-01-10T06:18:12.808Z,15.82
2023-01-10T06:23:16.554Z,16.87
2023-01-10T06:28:18.959Z,16.88
2023-01-10T06:33:21.407Z,16.98
2023-01-10T06:38:25.133Z,19.27
2023-01-10T06:43:27.468Z,18.73
2023-01-10T06:48:29.807Z,18.40
2023-01-10T06:53:33.546Z,17.98
2023-01-10T06:58:38.417Z,16.92
2023-01-10T07:03:41.047Z,19.30
2023-01-10T07:08:45.990Z,20.50
2023-01-10T07:13:48.374Z,19.95
2023-01-10T07:18:50.766Z,19.80
2023-01-10T07:23:54.543Z,19.17
2023-01-10T07:28:56.923Z,18.17
2023-01-10T07:33:59.293Z,17.23
2023-01-10T07:39:03.084Z,18.98
2023-01-10T07:44:05.581Z,16.30
2023-01-10T07:49:07.929Z,19.25
2023-01-10T07:54:13.603Z,14.80
2023-01-10T07:59:17.209Z,17.08
2023-01-10T08:04:19.593Z,17.20
2023-01-10T08:09:23.333Z,15.48
2023-01-10T08:14:25.845Z,13.80
2023-01-10T08:19:28.199Z,14.32
2023-01-10T08:24:31.898Z,14.95
2023-01-10T08:29:34.308Z,13.82
2023-01-10T08:34:36.767Z,12.13
2023-01-10T08:39:40.478Z,11.35
2023-01-10T08:44:42.865Z,10.45
2023-01-10T08:49:47.048Z,10.43
2023-01-10T08:54:51.090Z,9.85
2023-01-10T08:59:53.492Z,9.73
2023-01-10T09:04:55.890Z,9.27
2023-01-10T09:09:59.551Z,8.15
2023-01-10T09:15:01.966Z,8.15
2023-01-10T09:20:06.214Z,8.50
2023-01-10T09:25:11.238Z,9.00
2023-01-10T09:30:14.091Z,9.48
2023-01-10T09:35:16.540Z,9.38
2023-01-10T09:40:21.889Z,7.40
2023-01-10T09:45:28.290Z,8.18
2023-01-10T09:50:33.510Z,7.55
2023-01-10T09:55:38.555Z,8.15
2023-01-10T10:00:43.503Z,7.38
2023-01-10T10:05:46.105Z,7.18
2023-01-10T10:10:56.132Z,7.90
2023-01-10T10:16:04.289Z,9.07
2023-01-10T10:21:10.659Z,8.25
2023-01-10T10:26:19.191Z,8.20
2023-01-10T10:31:27.975Z,7.75
2023-01-10T10:36:36.262Z,7.30
2023-01-10T10:41:42.117Z,6.57
2023-01-10T10:46:44.486Z,7.55
2023-01-10T10:51:50.533Z,6.13
2023-01-10T10:56:56.230Z,7.10
2023-01-10T11:01:58.730Z,7.32
2023-01-10T11:07:01.785Z,7.87
2023-01-10T11:12:06.079Z,6.88
2023-01-10T11:17:25.585Z,6.95
2023-01-10T11:22:29.189Z,7.72
2023-01-10T11:27:36.072Z,7.78
2023-01-10T11:32:40.762Z,6.18
2023-01-10T11:37:43.159Z,7.18
2023-01-10T11:42:47.083Z,7.28
2023-01-10T11:47:50.897Z,6.38
2023-01-10T11:52:53.786Z,7.13
2023-01-10T11:57:59.788Z,8.40
2023-01-10T12:03:02.358Z,6.68
2023-01-10T12:08:06.530Z,7.00
2023-01-10T12:13:14.653Z,6.53
2023-01-10T12:18:18.235Z,7.90
2023-01-10T12:28:25.852Z,9.15
2023-01-10T12:33:29.794Z,8.32
2023-01-10T12:38:51.932Z,7.40
2023-01-10T12:44:15.015Z,8.18
2023-01-10T12:49:20.083Z,7.03
2023-01-10T12:54:24.339Z,7.05
2023-01-10T12:59:37.380Z,7.65
2023-01-10T13:04:41.402Z,7.45
2023-01-10T13:14:52.307Z,6.82
2023-01-10T13:20:12.365Z,6.00
2023-01-10T13:25:20.055Z,6.05
2023-01-10T13:30:32.349Z,6.15
2023-01-10T13:35:39.505Z,6.70
2023-01-10T13:40:41.909Z,6.50
2023-01-10T13:45:45.641Z,5.50
2023-01-10T13:51:08.181Z,5.72
2023-01-10T13:56:25.438Z,5.88
2023-01-10T14:01:48.922Z,5.88
2023-01-10T14:06:53.703Z,6.43
2023-01-10T14:11:58.842Z,5.93
2023-01-10T14:17:13.431Z,6.45
2023-01-10T14:22:24.346Z,6.43
2023-01-10T14:27:28.802Z,5.80
2023-01-10T14:32:38.197Z,6.53
2023-01-10T14:37:42.145Z,6.88
2023-01-10T14:42:44.783Z,5.80
2023-01-10T14:47:49.566Z,5.40
2023-01-10T14:52:51.928Z,5.38
2023-01-10T14:57:54.955Z,5.75
2023-01-10T15:03:01.642Z,5.05
2023-01-10T15:08:17.576Z,5.65
2023-01-10T15:13:22.166Z,6.35
2023-01-10T15:18:36.273Z,5.70
2023-01-10T15:23:40.023Z,5.82
2023-01-10T15:28:42.956Z,5.63
2023-01-10T15:33:56.269Z,6.10
2023-01-10T15:38:58.793Z,5.10
2023-01-10T15:44:16.073Z,5.13
2023-01-10T15:49:23.104Z,5.40
2023-01-10T15:54:29.694Z,5.13
2023-01-10T15:59:33.736Z,5.40
2023-01-10T16:04:37.911Z,4.93
2023-01-10T16:09:40.714Z,4.88
2023-01-10T16:14:43.173Z,5.43
2023-01-10T16:19:46.895Z,5.47
2023-01-10T16:24:52.464Z,5.22
2023-01-10T16:29:56.458Z,5.85
2023-01-10T16:35:01.486Z,5.05
2023-01-10T16:40:11.957Z,5.70
2023-01-10T16:45:15.001Z,5.70
2023-01-10T16:50:20.419Z,5.35
2023-01-10T16:55:24.691Z,5.47
2023-01-10T17:00:27.203Z,5.43
2023-01-10T17:05:31.056Z,5.53
2023-01-10T17:10:35.112Z,5.85
2023-01-10T17:15:37.567Z,6.20
2023-01-10T17:20:41.325Z,5.93
2023-01-10T17:25:44.640Z,5.68
2023-01-10T17:30:47.173Z,5.38
2023-01-10T17:35:53.504Z,4.70
2023-01-10T17:40:56.527Z,5.22
2023-01-10T17:45:59.749Z,8.13
2023-01-10T17:51:04.224Z,10.30
2023-01-10T17:56:07.396Z,9.68
2023-01-10T18:01:16.036Z,11.13
2023-01-10T18:06:24.086Z,10.38
2023-01-10T18:11:28.797Z,9.30
2023-01-10T18:16:31.264Z,9.48
2023-01-10T18:21:35.039Z,8.73
2023-01-10T18:26:37.437Z,8.80
2023-01-10T18:31:44.637Z,8.85
2023-01-10T18:36:48.390Z,9.88
2023-01-10T18:41:50.775Z,9.30
2023-01-10T18:46:53.143Z,8.70
2023-01-10T18:51:56.927Z,6.50
2023-01-10T18:56:59.312Z,5.72
2023-01-10T19:02:01.805Z,7.68
2023-01-10T19:07:05.541Z,6.93
2023-01-10T19:12:09.606Z,7.57
2023-01-10T19:17:12.045Z,7.53
2023-01-10T19:22:15.838Z,7.57
2023-01-10T19:27:18.898Z,8.20
2023-01-10T19:32:21.379Z,8.55
2023-01-10T19:37:25.123Z,8.25
2023-01-10T19:42:27.558Z,8.65
2023-01-10T19:47:29.976Z,10.07
2023-01-10T19:52:33.747Z,9.52
2023-01-10T19:57:36.103Z,8.82
2023-01-10T20:02:38.579Z,8.07
2023-01-10T20:07:42.495Z,8.75
2023-01-10T20:12:44.933Z,8.70
2023-01-10T20:17:47.304Z,10.63
2023-01-10T20:22:51.055Z,7.65
2023-01-10T20:27:53.461Z,9.00
2023-01-10T20:32:55.862Z,7.70
2023-01-10T20:37:59.655Z,7.55
2023-01-10T20:43:02.026Z,7.85
2023-01-10T20:48:04.525Z,7.00
2023-01-10T20:53:08.220Z,6.53
2023-01-10T20:58:10.647Z,6.90
2023-01-10T21:03:13.105Z,6.15
2023-01-10T21:08:16.952Z,6.53
2023-01-10T21:13:19.517Z,6.00
2023-01-10T21:18:24.282Z,6.60
2023-01-10T21:23:28.992Z,6.22
2023-01-10T21:28:34.005Z,6.30
2023-01-10T21:33:37.025Z,6.60
2023-01-10T21:38:41.516Z,6.60
2023-01-10T21:43:46.002Z,7.10
2023-01-10T21:48:48.409Z,6.97
2023-01-10T21:53:52.133Z,7.10
2023-01-10T21:58:54.542Z,6.88
2023-01-10T22:03:57.017Z,6.43
2023-01-10T22:09:00.820Z,6.60
2023-01-10T22:14:03.357Z,7.50
2023-01-10T22:19:05.923Z,6.47
2023-01-10T22:24:10.336Z,6.35
2023-01-10T22:29:12.839Z,6.65
2023-01-10T22:34:15.574Z,5.72
2023-01-10T22:39:19.407Z,6.33
2023-01-10T22:44:22.674Z,6.85
2023-01-10T22:49:25.026Z,6.70
2023-01-10T22:54:28.802Z,7.05
2023-01-10T22:59:42.031Z,7.18
2023-01-10T23:04:44.467Z,6.97
2023-01-10T23:09:48.160Z,7.93
2023-01-10T23:14:50.475Z,8.02
2023-01-10T23:19:52.816Z,7.72
2023-01-10T23:24:56.476Z,7.25
2023-01-10T23:29:58.792Z,8.40
2023-01-10T23:35:01.225Z,8.35
2023-01-10T23:40:05.279Z,9.13
2023-01-10T23:45:08.264Z,8.57
2023-01-10T23:50:11.383Z,8.40
2023-01-10T23:55:15.090Z,8.35
